sensor_id;sensor_type;location;lat;lon;timestamp;pressure;altitude;pressure_sealevel;temperature;humidity
12722;BME280;6425;50.316;8.114;2022-12-10T08:43:54;98295.59;;;-2.92;100.00
12722;BME280;6425;50.316;8.114;2022-12-10T09:07:42;98312.00;;;-2.73;99.26
12722;BME280;6425;50.316;8.114;2022-12-10T09:12:43;98320.81;;;-2.80;96.85
12722;BME280;6425;50.316;8.114;2022-12-10T09:17:43;98313.78;;;-1.98;93.45
12722;BME280;6425;50.316;8.114;2022-12-10T09:22:45;98329.56;;;-1.62;88.99
12722;BME280;6425;50.316;8.114;2022-12-10T09:27:46;98335.34;;;-1.71;86.63
12722;BME280;6425;50.316;8.114;2022-12-10T10:08:27;98322.25;;;-2.49;94.01
12722;BME280;6425;50.316;8.114;2022-12-10T10:13:33;98323.16;;;-2.70;92.02
12722;BME280;6425;50.316;8.114;2022-12-10T10:18:37;98313.91;;;-2.67;91.09
12722;BME280;6425;50.316;8.114;2022-12-10T10:23:42;98318.75;;;-2.43;89.14
12722;BME280;6425;50.316;8.114;2022-12-10T10:28:45;98321.75;;;-2.24;88.25
12722;BME280;6425;50.316;8.114;2022-12-10T10:33:50;98327.00;;;-2.51;88.43
12722;BME280;6425;50.316;8.114;2022-12-10T10:38:52;98339.88;;;-2.68;88.69
12722;BME280;6425;50.316;8.114;2022-12-10T10:43:59;98329.97;;;-2.67;88.95
12722;BME280;6425;50.316;8.114;2022-12-10T10:49:14;98331.84;;;-2.61;89.32
12722;BME280;6425;50.316;8.114;2022-12-10T10:54:31;98320.75;;;-2.58;88.61
12722;BME280;6425;50.316;8.114;2022-12-10T10:59:34;98320.94;;;-2.18;86.91
12722;BME280;6425;50.316;8.114;2022-12-10T11:04:37;98316.78;;;-2.28;87.44
12722;BME280;6425;50.316;8.114;2022-12-10T11:09:39;98322.13;;;-1.53;85.46
12722;BME280;6425;50.316;8.114;2022-12-10T11:14:43;98320.97;;;-2.05;85.17
12722;BME280;6425;50.316;8.114;2022-12-10T11:19:54;98318.63;;;-1.60;84.35
12722;BME280;6425;50.316;8.114;2022-12-10T11:24:56;98321.38;;;-2.08;85.46
12722;BME280;6425;50.316;8.114;2022-12-10T11:30:01;98317.47;;;-2.12;86.29
12722;BME280;6425;50.316;8.114;2022-12-10T11:35:10;98323.50;;;-1.97;85.28
12722;BME280;6425;50.316;8.114;2022-12-10T11:40:25;98324.44;;;-1.23;83.74
12722;BME280;6425;50.316;8.114;2022-12-10T11:45:33;98335.94;;;-1.69;84.11
12722;BME280;6425;50.316;8.114;2022-12-10T11:50:42;98340.44;;;-1.90;85.57
12722;BME280;6425;50.316;8.114;2022-12-10T11:55:53;98334.69;;;-1.80;85.24
12722;BME280;6425;50.316;8.114;2022-12-10T12:01:02;98327.22;;;-1.91;85.97
12722;BME280;6425;50.316;8.114;2022-12-10T12:06:16;98332.31;;;-1.29;85.38
12722;BME280;6425;50.316;8.114;2022-12-10T12:11:32;98324.84;;;-1.40;83.66
12722;BME280;6425;50.316;8.114;2022-12-10T12:16:40;98335.97;;;-1.63;84.09
12722;BME280;6425;50.316;8.114;2022-12-10T12:21:43;98338.69;;;-1.36;81.87
12722;BME280;6425;50.316;8.114;2022-12-10T12:26:49;98342.91;;;-1.88;84.12
12722;BME280;6425;50.316;8.114;2022-12-10T12:31:55;98341.81;;;-0.86;82.39
12722;BME280;6425;50.316;8.114;2022-12-10T12:36:58;98348.81;;;-1.32;81.73
12722;BME280;6425;50.316;8.114;2022-12-10T12:42:06;98342.06;;;-2.02;84.80
12722;BME280;6425;50.316;8.114;2022-12-10T12:47:19;98343.44;;;-1.52;82.43
12722;BME280;6425;50.316;8.114;2022-12-10T12:52:29;98347.59;;;-1.22;81.80
12722;BME280;6425;50.316;8.114;2022-12-10T12:57:41;98359.19;;;-2.03;82.41
12722;BME280;6425;50.316;8.114;2022-12-10T13:02:54;98356.03;;;-2.13;84.21
12722;BME280;6425;50.316;8.114;2022-12-10T13:08:24;98358.38;;;-1.97;84.40
12722;BME280;6425;50.316;8.114;2022-12-10T13:13:30;98365.28;;;-1.68;83.06
12722;BME280;6425;50.316;8.114;2022-12-10T13:18:36;98374.81;;;-2.13;84.25
12722;BME280;6425;50.316;8.114;2022-12-10T13:23:47;98379.06;;;-1.84;84.62
